createdAt,value
2019-05-13T00:02:01.447Z,2.90
2019-05-13T00:07:05.022Z,3.20
2019-05-13T00:12:08.034Z,2.50
2019-05-13T00:17:11.668Z,2.67
2019-05-13T00:22:14.923Z,2.47
2019-05-13T00:27:18.573Z,3.20
2019-05-13T00:32:23.627Z,2.60
2019-05-13T00:37:27.197Z,4.80
2019-05-13T00:42:30.438Z,2.27
2019-05-13T00:47:34.214Z,2.00
2019-05-13T00:52:37.498Z,3.00
2019-05-13T00:57:40.354Z,3.60
2019-05-13T01:02:44.602Z,2.53
2019-05-13T01:07:48.666Z,2.53
2019-05-13T01:12:53.835Z,2.40
2019-05-13T01:17:57.574Z,3.10
2019-05-13T01:23:00.668Z,2.53
2019-05-13T01:28:04.566Z,2.60
2019-05-13T01:33:08.301Z,2.80
2019-05-13T01:38:13.332Z,4.90
2019-05-13T01:43:15.943Z,3.20
2019-05-13T01:48:19.436Z,3.40
2019-05-13T01:53:24.351Z,3.87
2019-05-13T01:58:27.139Z,3.80
2019-05-13T02:03:30.291Z,3.83
2019-05-13T02:08:33.692Z,3.60
2019-05-13T02:13:36.742Z,3.27
2019-05-13T02:18:39.978Z,3.53
2019-05-13T02:23:44.317Z,3.60
2019-05-13T02:28:47.963Z,2.77
2019-05-13T02:33:53.078Z,4.27
2019-05-13T02:38:56.481Z,2.83
2019-05-13T02:44:03.218Z,3.40
2019-05-13T02:49:04.810Z,3.10
2019-05-13T02:54:07.427Z,2.80
2019-05-13T02:59:13.152Z,2.50
2019-05-13T03:04:15.410Z,1.83
2019-05-13T03:09:18.666Z,3.20
2019-05-13T03:14:23.916Z,3.37
2019-05-13T03:19:26.930Z,2.40
2019-05-13T03:24:32.914Z,2.60
2019-05-13T03:29:35.347Z,2.40
2019-05-13T03:34:38.505Z,3.43
2019-05-13T03:39:43.491Z,3.10
2019-05-13T03:44:52.447Z,3.00
2019-05-13T03:49:58.521Z,3.73
2019-05-13T03:55:03.165Z,2.77
2019-05-13T04:00:07.348Z,2.97
2019-05-13T04:05:13.422Z,2.47
2019-05-13T04:10:15.207Z,3.20
2019-05-13T04:15:18.800Z,2.80
2019-05-13T04:20:23.352Z,3.30
2019-05-13T04:25:26.411Z,3.03
2019-05-13T04:30:28.913Z,3.03
2019-05-13T04:35:33.538Z,3.73
2019-05-13T04:40:37.181Z,4.10
2019-05-13T04:45:42.855Z,3.10
2019-05-13T04:50:43.948Z,3.10
2019-05-13T04:55:52.600Z,3.87
2019-05-13T05:01:23.762Z,4.17
2019-05-13T05:06:47.913Z,3.00
2019-05-13T05:12:17.597Z,2.87
2019-05-13T05:17:43.195Z,3.00
2019-05-13T05:23:18.452Z,2.23
2019-05-13T05:28:41.640Z,3.10
2019-05-13T05:34:11.628Z,2.93
2019-05-13T05:39:25.958Z,2.60
2019-05-13T05:44:32.464Z,3.17
2019-05-13T05:49:37.444Z,2.73
2019-05-13T05:54:42.212Z,2.40
2019-05-13T05:59:46.436Z,3.50
2019-05-13T06:04:51.994Z,2.17
2019-05-13T06:09:55.893Z,2.60
2019-05-13T06:15:02.422Z,2.83
2019-05-13T06:20:06.779Z,2.57
2019-05-13T06:25:14.110Z,2.23
2019-05-13T06:30:15.677Z,2.13
2019-05-13T06:35:18.936Z,4.60
2019-05-13T06:40:22.145Z,2.30
2019-05-13T06:45:25.317Z,2.50
2019-05-13T06:50:28.246Z,2.97
2019-05-13T06:55:31.620Z,3.10
2019-05-13T07:00:35.181Z,2.10
2019-05-13T07:05:38.288Z,2.23
2019-05-13T07:10:41.561Z,2.90
2019-05-13T07:15:44.116Z,2.93
2019-05-13T07:20:47.654Z,2.30
2019-05-13T07:25:52.427Z,2.40
2019-05-13T07:30:55.254Z,1.63
2019-05-13T07:36:02.368Z,2.50
2019-05-13T07:41:05.261Z,2.13
2019-05-13T07:46:08.112Z,2.00
2019-05-13T07:51:12.066Z,2.50
2019-05-13T07:56:15.738Z,2.60
2019-05-13T08:01:21.909Z,2.10
2019-05-13T08:06:24.298Z,1.43
2019-05-13T08:11:27.980Z,1.80
2019-05-13T08:16:32.320Z,2.00
2019-05-13T08:21:35.956Z,1.53
2019-05-13T08:26:44.907Z,1.47
2019-05-13T08:31:44.045Z,1.70
2019-05-13T08:36:47.227Z,2.00
2019-05-13T08:41:51.598Z,1.30
2019-05-13T08:46:56.286Z,2.30
2019-05-13T08:52:01.604Z,1.20
2019-05-13T08:57:04.998Z,1.20
2019-05-13T09:02:08.194Z,1.27
2019-05-13T09:07:12.148Z,1.20
2019-05-13T09:12:28.635Z,1.43
2019-05-13T09:17:21.219Z,1.13
2019-05-13T09:22:24.482Z,1.37
2019-05-13T09:27:27.972Z,1.27
2019-05-13T09:32:32.970Z,1.40
2019-05-13T09:37:36.448Z,1.57
2019-05-13T09:42:49.112Z,0.80
2019-05-13T09:47:45.667Z,1.30
2019-05-13T09:52:48.867Z,1.50
2019-05-13T09:57:52.618Z,1.13
2019-05-13T10:02:55.923Z,0.90
2019-05-13T10:08:02.111Z,1.97
2019-05-13T10:13:12.007Z,1.20
2019-05-13T10:18:08.987Z,1.37
2019-05-13T10:23:12.878Z,1.30
2019-05-13T10:28:16.997Z,1.13
2019-05-13T10:33:22.131Z,1.10
2019-05-13T10:38:27.881Z,1.67
2019-05-13T10:43:31.759Z,1.20
2019-05-13T10:48:36.075Z,1.80
2019-05-13T10:53:42.015Z,2.40
2019-05-13T10:58:46.066Z,1.80
2019-05-13T11:03:52.424Z,1.77
2019-05-13T11:08:54.341Z,2.20
2019-05-13T11:14:06.703Z,2.00
2019-05-13T11:19:03.349Z,1.03
2019-05-13T11:24:08.290Z,1.20
2019-05-13T11:29:12.265Z,1.40
2019-05-13T11:34:15.626Z,1.27
2019-05-13T11:39:21.640Z,2.00
2019-05-13T11:44:24.878Z,1.67
2019-05-13T11:49:27.575Z,1.60
2019-05-13T11:54:30.451Z,2.13
2019-05-13T11:59:33.885Z,1.30
2019-05-13T12:04:37.165Z,2.30
2019-05-13T12:09:40.772Z,1.60
2019-05-13T12:15:16.282Z,1.80
2019-05-13T12:19:49.387Z,1.20
2019-05-13T12:24:53.007Z,1.70
2019-05-13T12:29:55.943Z,1.40
2019-05-13T12:34:59.499Z,1.40
2019-05-13T12:40:03.394Z,1.20
2019-05-13T12:45:10.037Z,1.73
2019-05-13T12:50:13.591Z,1.80
2019-05-13T12:55:16.773Z,1.40
2019-05-13T13:00:23.662Z,1.13
2019-05-13T13:05:33.170Z,1.40
2019-05-13T13:10:34.548Z,1.40
2019-05-13T13:15:42.257Z,1.67
2019-05-13T13:20:42.482Z,1.70
2019-05-13T13:25:52.652Z,1.50
2019-05-13T13:30:52.820Z,1.40
2019-05-13T13:36:03.943Z,1.33
2019-05-13T13:41:04.556Z,1.63
2019-05-13T13:46:22.074Z,1.33
2019-05-13T13:51:14.186Z,1.60
2019-05-13T13:56:17.442Z,1.20
2019-05-13T14:01:27.004Z,1.47
2019-05-13T14:07:22.636Z,1.10
2019-05-13T14:11:33.127Z,1.40
2019-05-13T14:16:35.588Z,0.97
2019-05-13T14:21:41.474Z,1.40
2019-05-13T14:26:44.307Z,1.03
2019-05-13T14:31:52.052Z,1.30
2019-05-13T14:36:55.839Z,1.40
2019-05-13T14:41:59.080Z,1.27
2019-05-13T14:47:02.352Z,1.43
2019-05-13T14:52:05.637Z,1.33
2019-05-13T14:57:11.869Z,1.50
2019-05-13T15:02:14.267Z,1.20
2019-05-13T15:07:17.660Z,1.17
2019-05-13T15:12:21.586Z,0.93
2019-05-13T15:17:24.771Z,1.37
2019-05-13T15:22:28.492Z,1.50
2019-05-13T15:27:31.825Z,1.10
2019-05-13T15:32:35.322Z,1.60
2019-05-13T15:37:38.552Z,1.77
2019-05-13T15:42:41.789Z,1.53
2019-05-13T15:47:45.077Z,1.30
2019-05-13T15:52:48.590Z,1.40
2019-05-13T15:57:52.261Z,1.70
2019-05-13T16:02:55.492Z,2.40
2019-05-13T16:08:01.347Z,1.30
2019-05-13T16:13:04.482Z,1.47
2019-05-13T16:18:07.763Z,1.60
2019-05-13T16:23:12.534Z,1.20
2019-05-13T16:28:15.923Z,1.60
2019-05-13T16:33:19.429Z,1.33
2019-05-13T16:38:22.263Z,1.50
2019-05-13T16:43:25.434Z,1.30
2019-05-13T16:48:28.167Z,1.20
2019-05-13T16:53:31.825Z,1.43
2019-05-13T16:58:35.567Z,1.03
2019-05-13T17:03:41.392Z,1.47
2019-05-13T17:08:44.132Z,1.10
2019-05-13T17:13:47.507Z,1.20
2019-05-13T17:18:52.026Z,1.10
2019-05-13T17:23:55.769Z,1.27
2019-05-13T17:29:01.267Z,0.77
2019-05-13T17:34:04.029Z,1.47
2019-05-13T17:39:07.991Z,1.07
2019-05-13T17:44:11.825Z,1.13
2019-05-13T17:49:14.883Z,1.10
2019-05-13T17:54:18.679Z,1.50
2019-05-13T17:59:22.525Z,1.20
2019-05-13T18:04:25.960Z,1.20
2019-05-13T18:09:31.547Z,2.47
2019-05-13T18:14:34.202Z,1.23
2019-05-13T18:19:38.334Z,1.00
2019-05-13T18:24:41.447Z,0.90
2019-05-13T18:29:44.897Z,1.00
2019-05-13T18:34:48.483Z,1.60
2019-05-13T18:39:52.080Z,1.33
2019-05-13T18:44:56.449Z,1.70
2019-05-13T18:50:02.181Z,1.10
2019-05-13T18:55:05.751Z,1.03
2019-05-13T19:00:11.171Z,2.93
2019-05-13T19:05:14.195Z,1.30
2019-05-13T19:10:17.126Z,1.40
2019-05-13T19:15:21.287Z,1.03
2019-05-13T19:20:26.750Z,1.40
2019-05-13T19:25:31.412Z,1.07
2019-05-13T19:30:34.971Z,1.50
2019-05-13T19:35:38.359Z,1.73
2019-05-13T19:40:41.917Z,1.33
2019-05-13T19:45:47.243Z,1.30
2019-05-13T19:50:52.122Z,1.47
2019-05-13T19:55:55.525Z,1.40
2019-05-13T20:00:58.408Z,1.10
2019-05-13T20:06:02.384Z,1.57
2019-05-13T20:11:06.065Z,1.87
2019-05-13T20:16:11.498Z,2.40
2019-05-13T20:21:14.727Z,0.97
2019-05-13T20:26:18.227Z,1.43
2019-05-13T20:31:21.933Z,1.50
2019-05-13T20:36:24.875Z,1.37
2019-05-13T20:41:27.766Z,1.60
2019-05-13T20:46:32.661Z,1.93
2019-05-13T20:51:35.820Z,1.83
2019-05-13T20:56:39.048Z,1.57
2019-05-13T21:01:42.639Z,1.63
2019-05-13T21:06:45.541Z,1.80
2019-05-13T21:11:51.345Z,1.77
2019-05-13T21:16:54.011Z,1.60
2019-05-13T21:21:56.907Z,1.80
2019-05-13T21:27:01.782Z,1.83
2019-05-13T21:32:04.446Z,1.83
2019-05-13T21:37:06.932Z,1.23
2019-05-13T21:42:11.441Z,1.70
2019-05-13T21:47:14.821Z,1.93
2019-05-13T21:52:18.443Z,1.73
2019-05-13T21:57:24.004Z,1.70
2019-05-13T22:02:27.224Z,2.10
2019-05-13T22:07:31.505Z,1.83
2019-05-13T22:12:34.868Z,2.30
2019-05-13T22:17:37.890Z,2.07
2019-05-13T22:22:41.588Z,2.07
2019-05-13T22:27:44.545Z,1.77
2019-05-13T22:32:47.804Z,2.00
2019-05-13T22:37:51.295Z,1.90
2019-05-13T22:42:56.993Z,2.07
2019-05-13T22:48:02.641Z,2.27
2019-05-13T22:53:07.365Z,2.10
2019-05-13T22:58:10.733Z,2.40
2019-05-13T23:03:13.411Z,2.30
2019-05-13T23:08:16.886Z,2.70
2019-05-13T23:13:19.687Z,2.10
2019-05-13T23:18:22.828Z,2.10
2019-05-13T23:23:25.892Z,2.30
2019-05-13T23:28:29.569Z,2.97
2019-05-13T23:33:32.460Z,2.70
2019-05-13T23:38:35.781Z,2.77
2019-05-13T23:43:38.972Z,2.53
2019-05-13T23:48:42.791Z,2.70
2019-05-13T23:53:45.708Z,2.30
2019-05-13T23:58:48.387Z,2.10
